Time,TemperatureF,DewpointF,PressureIn,WindDirection,WindDirectionDegrees,WindSpeedMPH,WindSpeedGustMPH,Humidity,HourlyPrecipIn,Conditions,Clouds,dailyrainin,SoftwareType,DateUTC
2013-04-03 00:03:00,31.0,11.0,30.03,West,281,1.0,7.0,42,0.00,,,0.00,,2013-04-03 04:03:00,
2013-04-03 00:13:00,31.0,11.0,30.03,West,281,1.0,7.0,42,0.00,,,0.00,,2013-04-03 04:13:00,
2013-04-03 00:23:00,31.0,9.0,30.03,WNW,302,1.0,4.0,40,0.00,,,0.00,,2013-04-03 04:23:00,
2013-04-03 00:33:00,31.0,10.0,30.03,SSW,211,3.0,11.0,41,0.00,,,0.00,,2013-04-03 04:33:00,
2013-04-03 00:43:00,31.0,10.0,30.03,SSW,211,3.0,11.0,41,0.00,,,0.00,,2013-04-03 04:43:00,
2013-04-03 00:53:00,31.0,11.0,30.03,WNW,300,5.0,12.0,43,0.00,,,0.00,,2013-04-03 04:53:00,
2013-04-03 01:02:00,31.0,12.0,30.03,West,275,2.0,11.0,44,0.00,,,0.00,,2013-04-03 05:02:00,
2013-04-03 01:12:00,31.0,12.0,30.03,West,275,2.0,11.0,44,0.00,,,0.00,,2013-04-03 05:12:00,
2013-04-03 01:22:00,30.0,12.0,30.04,NW,313,1.0,7.0,46,0.00,,,0.00,,2013-04-03 05:22:00,
2013-04-03 01:32:00,30.0,12.0,30.03,NNW,334,6.0,10.0,46,0.00,,,0.00,,2013-04-03 05:32:00,
2013-04-03 01:42:00,30.0,12.0,30.03,NNW,334,6.0,10.0,46,0.00,,,0.00,,2013-04-03 05:42:00,
2013-04-03 01:53:00,30.0,13.0,30.04,SSW,210,1.0,7.0,48,0.00,,,0.00,,2013-04-03 05:53:00,
2013-04-03 02:02:00,30.0,13.0,30.04,WNW,298,4.0,11.0,49,0.00,,,0.00,,2013-04-03 06:02:00,
2013-04-03 02:12:00,30.0,13.0,30.04,WNW,298,4.0,11.0,49,0.00,,,0.00,,2013-04-03 06:12:00,
2013-04-03 02:22:00,30.0,14.0,30.04,West,279,1.0,8.0,50,0.00,,,0.00,,2013-04-03 06:22:00,
2013-04-03 02:32:00,29.0,13.0,30.03,WNW,302,1.0,5.0,51,0.00,,,0.00,,2013-04-03 06:32:00,
2013-04-03 02:42:00,29.0,13.0,30.03,WNW,302,1.0,5.0,51,0.00,,,0.00,,2013-04-03 06:42:00,
2013-04-03 02:52:00,29.0,14.0,30.03,West,273,1.0,4.0,52,0.00,,,0.00,,2013-04-03 06:52:00,
2013-04-03 03:02:00,29.0,14.0,30.02,WNW,303,1.0,6.0,53,0.00,,,0.00,,2013-04-03 07:02:00,
2013-04-03 03:12:00,29.0,14.0,30.02,WNW,303,1.0,6.0,53,0.00,,,0.00,,2013-04-03 07:12:00,
2013-04-03 03:23:00,29.0,14.0,30.03,West,280,1.0,6.0,54,0.00,,,0.00,,2013-04-03 07:23:00,
2013-04-03 03:33:00,28.0,14.0,30.03,WNW,300,0.0,3.0,55,0.00,,,0.00,,2013-04-03 07:33:00,
2013-04-03 03:42:00,28.0,14.0,30.03,WNW,300,0.0,3.0,55,0.00,,,0.00,,2013-04-03 07:42:00,
2013-04-03 03:53:00,28.0,14.0,30.03,WNW,303,1.0,3.0,56,0.00,,,0.00,,2013-04-03 07:53:00,
2013-04-03 04:03:00,28.0,15.0,30.03,WNW,302,1.0,3.0,57,0.00,,,0.00,,2013-04-03 08:03:00,
2013-04-03 04:12:00,28.0,15.0,30.03,WNW,302,1.0,3.0,57,0.00,,,0.00,,2013-04-03 08:12:00,
2013-04-03 04:22:00,28.0,14.0,30.03,NNW,343,1.0,5.0,56,0.00,,,0.00,,2013-04-03 08:22:00,
2013-04-03 04:32:00,28.0,14.0,30.03,NNW,327,4.0,6.0,55,0.00,,,0.00,,2013-04-03 08:32:00,
2013-04-03 04:42:00,28.0,14.0,30.03,NNW,327,4.0,6.0,55,0.00,,,0.00,,2013-04-03 08:42:00,
2013-04-03 04:52:00,28.0,14.0,30.03,SW,221,1.0,5.0,55,0.00,,,0.00,,2013-04-03 08:52:00,
2013-04-03 05:02:00,28.0,14.0,30.03,WNW,295,2.0,7.0,55,0.00,,,0.00,,2013-04-03 09:02:00,
2013-04-03 05:12:00,28.0,14.0,30.03,WNW,295,2.0,7.0,55,0.00,,,0.00,,2013-04-03 09:12:00,
2013-04-03 05:22:00,28.0,14.0,30.03,WNW,297,2.0,8.0,55,0.00,,,0.00,,2013-04-03 09:22:00,
2013-04-03 05:33:00,28.0,14.0,30.03,WNW,300,3.0,10.0,55,0.00,,,0.00,,2013-04-03 09:33:00,
2013-04-03 05:43:00,28.0,14.0,30.03,WNW,300,3.0,10.0,55,0.00,,,0.00,,2013-04-03 09:43:00,
2013-04-03 05:53:00,28.0,15.0,30.04,SW,216,2.0,7.0,57,0.00,,,0.00,,2013-04-03 09:53:00,
2013-04-03 06:03:00,28.0,14.0,30.05,WNW,294,2.0,6.0,56,0.00,,,0.00,,2013-04-03 10:03:00,
2013-04-03 06:12:00,28.0,14.0,30.05,WNW,294,2.0,6.0,56,0.00,,,0.00,,2013-04-03 10:12:00,
2013-04-03 06:22:00,28.0,15.0,30.06,West,273,1.0,5.0,57,0.00,,,0.00,,2013-04-03 10:22:00,
2013-04-03 06:33:00,28.0,14.0,30.06,West,275,2.0,6.0,55,0.00,,,0.00,,2013-04-03 10:33:00,
2013-04-03 06:43:00,28.0,14.0,30.06,West,275,2.0,6.0,55,0.00,,,0.00,,2013-04-03 10:43:00,
2013-04-03 06:53:00,28.0,14.0,30.07,West,281,2.0,8.0,56,0.00,,,0.00,,2013-04-03 10:53:00,
2013-04-03 07:02:00,28.0,14.0,30.08,NW,310,0.0,6.0,55,0.00,,,0.00,,2013-04-03 11:02:00,
2013-04-03 07:12:00,28.0,14.0,30.08,NW,310,0.0,6.0,55,0.00,,,0.00,,2013-04-03 11:12:00,
2013-04-03 07:23:00,27.0,13.0,30.09,West,279,3.0,9.0,56,0.00,,,0.00,,2013-04-03 11:23:00,
2013-04-03 07:32:00,28.0,14.0,30.09,South,170,0.0,4.0,56,0.00,,,0.00,,2013-04-03 11:32:00,
2013-04-03 07:42:00,28.0,14.0,30.09,South,170,0.0,4.0,56,0.00,,,0.00,,2013-04-03 11:42:00,
2013-04-03 07:53:00,28.0,14.0,30.10,SSW,199,0.0,7.0,56,0.00,,,0.00,,2013-04-03 11:53:00,
2013-04-03 08:02:00,29.0,16.0,30.10,WNW,283,2.0,6.0,57,0.00,,,0.00,,2013-04-03 12:02:00,
2013-04-03 08:13:00,29.0,16.0,30.10,WNW,283,2.0,6.0,57,0.00,,,0.00,,2013-04-03 12:13:00,
2013-04-03 08:22:00,29.0,15.0,30.10,WNW,296,3.0,7.0,56,0.00,,,0.00,,2013-04-03 12:22:00,
2013-04-03 08:33:00,30.0,15.0,30.10,NW,321,3.0,9.0,54,0.00,,,0.00,,2013-04-03 12:33:00,
2013-04-03 08:42:00,30.0,15.0,30.10,NW,321,3.0,9.0,54,0.00,,,0.00,,2013-04-03 12:42:00,
2013-04-03 08:52:00,31.0,16.0,30.10,NNW,340,3.0,12.0,53,0.00,,,0.00,,2013-04-03 12:52:00,
2013-04-03 09:02:00,32.0,15.0,30.10,North,355,6.0,11.0,50,0.00,,,0.00,,2013-04-03 13:02:00,
2013-04-03 09:12:00,32.0,15.0,30.10,North,355,6.0,11.0,50,0.00,,,0.00,,2013-04-03 13:12:00,
2013-04-03 09:22:00,34.0,17.0,30.11,NNW,344,4.0,10.0,49,0.00,,,0.00,,2013-04-03 13:22:00,
2013-04-03 09:32:00,36.0,16.0,30.11,NW,306,3.0,11.0,44,0.00,,,0.00,,2013-04-03 13:32:00,
2013-04-03 09:42:00,36.0,16.0,30.11,NW,306,3.0,11.0,44,0.00,,,0.00,,2013-04-03 13:42:00,
2013-04-03 09:52:00,38.0,17.0,30.10,NW,311,3.0,10.0,42,0.00,,,0.00,,2013-04-03 13:52:00,
2013-04-03 10:02:00,38.0,16.0,30.10,WNW,290,5.0,10.0,40,0.00,,,0.00,,2013-04-03 14:02:00,
2013-04-03 10:12:00,38.0,16.0,30.10,WNW,290,5.0,10.0,40,0.00,,,0.00,,2013-04-03 14:12:00,
2013-04-03 10:22:00,40.0,18.0,30.10,NNW,344,3.0,11.0,40,0.00,,,0.00,,2013-04-03 14:22:00,
2013-04-03 10:32:00,39.0,16.0,30.11,NNW,336,5.0,11.0,39,0.00,,,0.00,,2013-04-03 14:32:00,
2013-04-03 10:42:00,39.0,16.0,30.11,NNW,336,5.0,11.0,39,0.00,,,0.00,,2013-04-03 14:42:00,
2013-04-03 10:52:00,41.0,17.0,30.10,North,349,3.0,10.0,37,0.00,,,0.00,,2013-04-03 14:52:00,
2013-04-03 11:02:00,41.0,16.0,30.10,NNW,327,2.0,11.0,36,0.00,,,0.00,,2013-04-03 15:02:00,
2013-04-03 11:12:00,41.0,16.0,30.10,NNW,327,2.0,11.0,36,0.00,,,0.00,,2013-04-03 15:12:00,
2013-04-03 11:23:00,42.0,17.0,30.11,WNW,301,5.0,11.0,36,0.00,,,0.00,,2013-04-03 15:23:00,
2013-04-03 11:33:00,42.0,14.0,30.11,NNW,338,3.0,15.0,32,0.00,,,0.00,,2013-04-03 15:33:00,
2013-04-03 11:43:00,42.0,14.0,30.11,NNW,338,3.0,15.0,32,0.00,,,0.00,,2013-04-03 15:43:00,
2013-04-03 11:53:00,43.0,15.0,30.10,WNW,292,5.0,16.0,32,0.00,,,0.00,,2013-04-03 15:53:00,
2013-04-03 12:03:00,44.0,16.0,30.11,NW,318,5.0,13.0,32,0.00,,,0.00,,2013-04-03 16:03:00,
2013-04-03 12:13:00,44.0,16.0,30.11,NW,318,5.0,13.0,32,0.00,,,0.00,,2013-04-03 16:13:00,
2013-04-03 12:24:00,44.0,17.0,30.10,NW,315,3.0,14.0,33,0.00,,,0.00,,2013-04-03 16:24:00,
2013-04-03 12:33:00,46.0,16.0,30.09,WNW,303,3.0,10.0,30,0.00,,,0.00,,2013-04-03 16:33:00,
2013-04-03 12:43:00,46.0,16.0,30.09,WNW,303,3.0,10.0,30,0.00,,,0.00,,2013-04-03 16:43:00,
2013-04-03 12:53:00,45.0,16.0,30.10,NE,41,3.0,13.0,31,0.00,,,0.00,,2013-04-03 16:53:00,
2013-04-03 13:03:00,47.0,16.0,30.09,NNW,331,4.0,11.0,29,0.00,,,0.00,,2013-04-03 17:03:00,
2013-04-03 13:14:00,47.0,16.0,30.09,NNW,331,4.0,11.0,29,0.00,,,0.00,,2013-04-03 17:14:00,
2013-04-03 13:23:00,46.0,15.0,30.09,WNW,300,4.0,13.0,28,0.00,,,0.00,,2013-04-03 17:23:00,
2013-04-03 13:33:00,47.0,16.0,30.09,WNW,292,3.0,13.0,28,0.00,,,0.00,,2013-04-03 17:33:00,
2013-04-03 13:46:00,47.0,16.0,30.09,WNW,292,3.0,13.0,28,0.00,,,0.00,,2013-04-03 17:46:00,
2013-04-03 13:54:00,47.0,15.0,30.08,SW,226,3.0,11.0,27,0.00,,,0.00,,2013-04-03 17:54:00,
2013-04-03 14:02:00,47.0,13.0,30.08,NW,317,6.0,15.0,25,0.00,,,0.00,,2013-04-03 18:02:00,
2013-04-03 14:13:00,47.0,13.0,30.08,NW,317,6.0,15.0,25,0.00,,,0.00,,2013-04-03 18:13:00,
2013-04-03 14:23:00,48.0,17.0,30.08,NNW,339,2.0,15.0,29,0.00,,,0.00,,2013-04-03 18:23:00,
2013-04-03 14:33:00,48.0,17.0,30.08,NW,306,2.0,9.0,29,0.00,,,0.00,,2013-04-03 18:33:00,
2013-04-03 14:43:00,48.0,17.0,30.08,NW,306,2.0,9.0,29,0.00,,,0.00,,2013-04-03 18:43:00,
2013-04-03 14:52:00,49.0,16.0,30.08,North,11,3.0,12.0,26,0.00,,,0.00,,2013-04-03 18:52:00,
2013-04-03 15:03:00,48.0,16.0,30.07,WNW,296,3.0,14.0,28,0.00,,,0.00,,2013-04-03 19:03:00,
2013-04-03 15:12:00,48.0,16.0,30.07,WNW,296,3.0,14.0,28,0.00,,,0.00,,2013-04-03 19:12:00,
2013-04-03 15:22:00,48.0,13.0,30.07,NW,325,8.0,16.0,24,0.00,,,0.00,,2013-04-03 19:22:00,
2013-04-03 15:32:00,48.0,14.0,30.07,NNE,18,5.0,14.0,25,0.00,,,0.00,,2013-04-03 19:32:00,
2013-04-03 15:42:00,48.0,14.0,30.07,NNE,18,5.0,14.0,25,0.00,,,0.00,,2013-04-03 19:42:00,
2013-04-03 15:52:00,48.0,13.0,30.07,West,276,5.0,13.0,24,0.00,,,0.00,,2013-04-03 19:52:00,
2013-04-03 16:02:00,47.0,13.0,30.07,WNW,283,3.0,14.0,25,0.00,,,0.00,,2013-04-03 20:02:00,
2013-04-03 16:12:00,47.0,13.0,30.07,WNW,283,3.0,14.0,25,0.00,,,0.00,,2013-04-03 20:12:00,
2013-04-03 16:23:00,48.0,13.0,30.07,NW,308,4.0,12.0,24,0.00,,,0.00,,2013-04-03 20:23:00,
2013-04-03 16:32:00,46.0,11.0,30.07,SSE,167,5.0,17.0,24,0.00,,,0.00,,2013-04-03 20:32:00,
2013-04-03 16:42:00,46.0,11.0,30.07,SSE,167,5.0,17.0,24,0.00,,,0.00,,2013-04-03 20:42:00,
2013-04-03 16:53:00,44.0,10.0,30.08,WNW,302,3.0,13.0,24,0.00,,,0.00,,2013-04-03 20:53:00,
2013-04-03 17:02:00,43.0,12.0,30.08,WSW,242,2.0,12.0,28,0.00,,,0.00,,2013-04-03 21:02:00,
2013-04-03 17:12:00,43.0,12.0,30.08,WSW,242,2.0,12.0,28,0.00,,,0.00,,2013-04-03 21:12:00,
2013-04-03 17:22:00,43.0,13.0,30.09,NW,304,3.0,13.0,29,0.00,,,0.00,,2013-04-03 21:22:00,
2013-04-03 17:33:00,42.0,10.0,30.10,WNW,282,5.0,16.0,27,0.00,,,0.00,,2013-04-03 21:33:00,
2013-04-03 17:42:00,42.0,10.0,30.10,WNW,282,5.0,16.0,27,0.00,,,0.00,,2013-04-03 21:42:00,
2013-04-03 17:52:00,42.0,11.0,30.10,West,277,6.0,14.0,28,0.00,,,0.00,,2013-04-03 21:52:00,
2013-04-03 18:02:00,41.0,10.0,30.10,WNW,294,4.0,11.0,28,0.00,,,0.00,,2013-04-03 22:02:00,
2013-04-03 18:13:00,41.0,10.0,30.10,WNW,294,4.0,11.0,28,0.00,,,0.00,,2013-04-03 22:13:00,
2013-04-03 18:22:00,40.0,9.0,30.11,ESE,102,6.0,15.0,27,0.00,,,0.00,,2013-04-03 22:22:00,
2013-04-03 18:33:00,39.0,10.0,30.13,NNW,340,4.0,16.0,30,0.00,,,0.00,,2013-04-03 22:33:00,
2013-04-03 18:42:00,39.0,10.0,30.13,NNW,340,4.0,16.0,30,0.00,,,0.00,,2013-04-03 22:42:00,
2013-04-03 18:52:00,39.0,9.0,30.13,WSW,244,7.0,15.0,29,0.00,,,0.00,,2013-04-03 22:52:00,
2013-04-03 19:02:00,38.0,11.0,30.14,NW,313,3.0,10.0,32,0.00,,,0.00,,2013-04-03 23:02:00,
2013-04-03 19:12:00,38.0,11.0,30.14,NW,313,3.0,10.0,32,0.00,,,0.00,,2013-04-03 23:12:00,
2013-04-03 19:22:00,37.0,9.0,30.15,WNW,287,4.0,13.0,31,0.00,,,0.00,,2013-04-03 23:22:00,
2013-04-03 19:32:00,37.0,11.0,30.16,NW,313,5.0,12.0,33,0.00,,,0.00,,2013-04-03 23:32:00,
2013-04-03 19:42:00,37.0,11.0,30.16,NW,313,5.0,12.0,33,0.00,,,0.00,,2013-04-03 23:42:00,
2013-04-03 19:54:00,36.0,10.0,30.16,North,9,5.0,14.0,33,0.00,,,0.00,,2013-04-03 23:54:00,
2013-04-03 20:03:00,35.0,11.0,30.17,NNW,327,4.0,12.0,36,0.00,,,0.00,,2013-04-04 00:03:00,
2013-04-03 20:12:00,35.0,11.0,30.17,NNW,327,4.0,12.0,36,0.00,,,0.00,,2013-04-04 00:12:00,
2013-04-03 20:22:00,35.0,11.0,30.18,WNW,284,4.0,8.0,37,0.00,,,0.00,,2013-04-04 00:22:00,
2013-04-03 20:32:00,34.0,11.0,30.19,SSW,201,3.0,13.0,38,0.00,,,0.00,,2013-04-04 00:32:00,
2013-04-03 20:43:00,34.0,11.0,30.19,SSW,201,3.0,13.0,38,0.00,,,0.00,,2013-04-04 00:43:00,
2013-04-03 20:52:00,34.0,11.0,30.19,NW,309,5.0,16.0,38,0.00,,,0.00,,2013-04-04 00:52:00,
2013-04-03 21:02:00,34.0,12.0,30.21,West,278,4.0,11.0,39,0.00,,,0.00,,2013-04-04 01:02:00,
2013-04-03 21:12:00,34.0,12.0,30.21,West,278,4.0,11.0,39,0.00,,,0.00,,2013-04-04 01:12:00,
2013-04-03 21:22:00,33.0,11.0,30.21,NNW,329,2.0,10.0,40,0.00,,,0.00,,2013-04-04 01:22:00,
2013-04-03 21:32:00,33.0,12.0,30.22,NE,46,1.0,9.0,42,0.00,,,0.00,,2013-04-04 01:32:00,
2013-04-03 21:43:00,33.0,12.0,30.22,NE,46,1.0,9.0,42,0.00,,,0.00,,2013-04-04 01:43:00,
2013-04-03 21:52:00,33.0,13.0,30.22,WNW,303,3.0,14.0,43,0.00,,,0.00,,2013-04-04 01:52:00,
2013-04-03 22:02:00,33.0,12.0,30.22,WNW,302,4.0,10.0,41,0.00,,,0.00,,2013-04-04 02:02:00,
2013-04-03 22:12:00,33.0,12.0,30.22,WNW,302,4.0,10.0,41,0.00,,,0.00,,2013-04-04 02:12:00,
2013-04-03 22:22:00,32.0,11.0,30.24,North,355,4.0,8.0,41,0.00,,,0.00,,2013-04-04 02:22:00,
2013-04-03 22:32:00,32.0,12.0,30.24,NW,317,4.0,8.0,43,0.00,,,0.00,,2013-04-04 02:32:00,
2013-04-03 22:42:00,32.0,12.0,30.24,NW,317,4.0,8.0,43,0.00,,,0.00,,2013-04-04 02:42:00,
2013-04-03 22:53:00,32.0,12.0,30.24,NW,317,4.0,8.0,43,0.00,,,0.00,,2013-04-04 02:53:00,
2013-04-03 23:02:00,31.0,11.0,30.24,NW,311,2.0,8.0,43,0.00,,,0.00,,2013-04-04 03:02:00,
2013-04-03 23:12:00,31.0,11.0,30.24,NW,311,2.0,8.0,43,0.00,,,0.00,,2013-04-04 03:12:00,
2013-04-03 23:22:00,31.0,12.0,30.25,NNW,327,1.0,6.0,44,0.00,,,0.00,,2013-04-04 03:22:00,
2013-04-03 23:33:00,31.0,12.0,30.25,North,355,2.0,6.0,44,0.00,,,0.00,,2013-04-04 03:33:00,
2013-04-03 23:45:00,31.0,12.0,30.25,North,355,2.0,6.0,44,0.00,,,0.00,,2013-04-04 03:45:00,
2013-04-03 23:53:00,31.0,12.0,30.26,NW,307,1.0,7.0,45,0.00,,,0.00,,2013-04-04 03:53:00,